Time;durP1;ratioP1;P1;durP2;ratioP2;P2;SDS_P1;SDS_P2;PMS_P1;PMS_P2;Temp;Humidity;BMP_temperature;BMP_pressure;BME280_temperature;BME280_humidity;BME280_pressure;Samples;Min_cycle;Max_cycle;Signal;HPM_P1;HPM_P2
2024/02/18 00:02:16;;;;;;;2.37;2.17;;;;;;;9.78;63.29;101322.47;4475691;31;34035;-84
2024/02/18 00:04:44;;;;;;;3.30;3.05;;;;;;;9.70;64.10;101330.50;4464928;31;33055;-84
2024/02/18 00:07:12;;;;;;;3.87;1.95;;;;;;;9.76;64.09;101327.78;4492332;31;33931;-84
2024/02/18 00:09:40;;;;;;;3.95;3.03;;;;;;;9.77;64.64;101320.72;4479631;31;32525;-84
2024/02/18 00:12:10;;;;;;;0.68;0.65;;;;;;;9.15;67.21;101323.41;4491734;31;33365;-84
2024/02/18 00:14:38;;;;;;;7.45;3.50;;;;;;;9.62;66.09;101329.75;4475999;31;33784;-83
2024/02/18 00:17:05;;;;;;;1.42;1.33;;;;;;;9.33;66.80;101323.16;4474501;31;32597;-84
2024/02/18 00:19:33;;;;;;;3.00;2.80;;;;;;;9.67;65.29;101312.97;4476187;31;34660;-84
2024/02/18 00:22:01;;;;;;;2.22;2.12;;;;;;;9.66;65.76;101323.53;4464800;31;31656;-84
2024/02/18 00:24:29;;;;;;;7.72;3.90;;;;;;;9.76;65.56;101317.22;4479535;31;33768;-84
2024/02/18 00:26:57;;;;;;;1.58;1.48;;;;;;;9.69;65.45;101311.19;4478534;31;34520;-85
2024/02/18 00:29:26;;;;;;;12.07;3.05;;;;;;;10.07;64.08;101307.03;4469766;31;33139;-85
2024/02/18 00:31:54;;;;;;;4.55;2.62;;;;;;;9.58;65.63;101313.09;4480012;31;34055;-85
2024/02/18 00:34:22;;;;;;;2.45;2.00;;;;;;;9.62;65.58;101319.22;4491883;31;33781;-85
2024/02/18 00:36:52;;;;;;;2.17;1.95;;;;;;;9.68;65.44;101327.00;4489000;31;34710;-85
2024/02/18 00:39:20;;;;;;;1.67;1.58;;;;;;;9.57;65.63;101331.59;4476919;31;33768;-85
2024/02/18 00:41:48;;;;;;;5.15;3.17;;;;;;;9.46;66.15;101331.75;4490244;31;33112;-84
2024/02/18 00:44:17;;;;;;;6.12;2.85;;;;;;;9.61;64.76;101343.84;4475987;31;33554;-84
2024/02/18 00:46:44;;;;;;;5.65;2.65;;;;;;;9.82;64.47;101338.22;4477010;31;32469;-84
2024/02/18 00:49:24;;;;;;;1.08;1.08;;;;;;;9.76;64.53;101338.31;4490670;31;33207;-84
2024/02/18 00:51:52;;;;;;;1.12;1.12;;;;;;;9.93;63.78;101331.03;4477915;31;32906;-84
2024/02/18 00:54:20;;;;;;;4.70;3.10;;;;;;;9.83;63.99;101332.06;4489192;31;34917;-84
2024/02/18 00:56:50;;;;;;;1.02;1.00;;;;;;;9.73;63.80;101330.44;4476923;31;34060;-84
2024/02/18 00:59:17;;;;;;;5.70;3.08;;;;;;;9.54;64.72;101336.91;4475788;31;32795;-84
2024/02/18 01:01:45;;;;;;;3.05;2.30;;;;;;;9.58;64.45;101333.31;4479080;31;33713;-84
2024/02/18 01:04:13;;;;;;;1.87;1.73;;;;;;;9.31;65.40;101334.63;4476844;31;33797;-84
2024/02/18 01:06:40;;;;;;;3.90;3.53;;;;;;;9.67;64.20;101338.47;4477011;31;33514;-84
2024/02/18 01:09:09;;;;;;;2.72;2.55;;;;;;;9.30;64.99;101339.00;4490463;31;33896;-85
2024/02/18 01:11:37;;;;;;;1.85;1.67;;;;;;;9.66;63.92;101331.44;4477170;31;32911;-84
2024/02/18 01:14:04;;;;;;;5.60;2.95;;;;;;;9.51;64.66;101336.97;4477618;31;33657;-84
2024/02/18 01:16:32;;;;;;;3.20;2.85;;;;;;;9.58;64.10;101330.69;4478899;31;32842;-84
2024/02/18 01:19:00;;;;;;;2.47;2.28;;;;;;;9.63;63.29;101327.09;4465061;31;34131;-85
2024/02/18 01:21:27;;;;;;;2.75;2.20;;;;;;;9.60;63.46;101327.16;4489157;31;33301;-85
2024/02/18 01:23:55;;;;;;;2.60;2.45;;;;;;;9.45;63.60;101333.53;4479080;31;33675;-84
2024/02/18 01:26:23;;;;;;;3.17;2.97;;;;;;;9.20;64.87;101326.84;4477585;31;33784;-84
2024/02/18 01:28:51;;;;;;;4.53;2.35;;;;;;;9.22;64.75;101327.72;4478561;31;33487;-84
2024/02/18 01:31:18;;;;;;;3.10;2.03;;;;;;;9.39;64.23;101324.81;4467676;31;32700;-84
2024/02/18 01:33:46;;;;;;;3.50;2.92;;;;;;;9.38;63.74;101318.69;4490214;31;33805;-85
2024/02/18 01:36:14;;;;;;;5.05;2.53;;;;;;;9.37;64.46;101319.56;4492402;31;34041;-84
2024/02/18 01:38:42;;;;;;;2.70;2.45;;;;;;;9.46;63.84;101319.44;4479894;31;31785;-85
2024/02/18 01:41:10;;;;;;;2.75;2.40;;;;;;;9.56;63.64;101324.59;4477692;31;35582;-84
2024/02/18 01:43:38;;;;;;;3.12;2.83;;;;;;;9.52;63.72;101323.75;4477150;31;33859;-84
2024/02/18 01:46:07;;;;;;;3.97;2.37;;;;;;;9.59;62.68;101319.25;4480880;31;33894;-84
2024/02/18 01:48:36;;;;;;;4.37;3.55;;;;;;;9.58;63.17;101322.78;4480258;31;34531;-82
2024/02/18 01:51:05;;;;;;;4.37;2.33;;;;;;;9.65;62.95;101320.03;4477438;31;34173;-82
2024/02/18 01:53:34;;;;;;;3.37;3.08;;;;;;;9.60;63.33;101327.16;4477714;31;34546;-82
2024/02/18 01:56:03;;;;;;;2.05;1.85;;;;;;;9.67;63.06;101317.38;4490411;31;34945;-82
2024/02/18 01:58:32;;;;;;;2.87;2.67;;;;;;;9.58;63.43;101318.37;4477761;31;35065;-82
2024/02/18 02:01:00;;;;;;;1.98;1.45;;;;;;;9.31;63.83;101314.41;4490172;31;33715;-82
2024/02/18 02:03:28;;;;;;;1.33;1.33;;;;;;;9.15;64.99;101319.00;4478588;31;33464;-82
2024/02/18 02:05:57;;;;;;;0.82;0.82;;;;;;;9.26;63.86;101329.41;4478412;31;34021;-82
2024/02/18 02:08:26;;;;;;;4.93;2.35;;;;;;;9.35;64.07;101328.37;4478311;31;34567;-83
2024/02/18 02:10:54;;;;;;;0.73;0.70;;;;;;;9.30;63.44;101330.22;4465016;31;31896;-83
2024/02/18 02:13:22;;;;;;;1.77;1.70;;;;;;;9.20;64.35;101332.97;4477273;31;33234;-83
2024/02/18 02:15:50;;;;;;;1.55;1.45;;;;;;;9.18;63.74;101326.88;4477864;31;33345;-84
2024/02/18 02:18:18;;;;;;;1.37;1.20;;;;;;;9.17;64.23;101332.19;4464433;31;32791;-83
2024/02/18 02:20:45;;;;;;;7.47;2.85;;;;;;;9.27;64.08;101331.16;4479285;31;31948;-83
2024/02/18 02:23:13;;;;;;;1.40;0.75;;;;;;;9.52;62.71;101322.88;4488977;31;33901;-83
2024/02/18 02:25:42;;;;;;;0.25;0.25;;;;;;;9.47;62.88;101328.22;4477881;31;34480;-82
2024/02/18 02:28:19;;;;;;;1.52;1.42;;;;;;;9.57;62.08;101321.03;4490037;31;33741;-82
2024/02/18 02:30:48;;;;;;;3.05;2.85;;;;;;;9.59;62.68;101321.87;4480493;31;33130;-82
2024/02/18 02:33:17;;;;;;;2.75;2.55;;;;;;;9.77;62.01;101318.09;4491235;31;33906;-82
2024/02/18 02:35:45;;;;;;;2.10;2.00;;;;;;;9.56;62.25;101319.31;4489953;31;32320;-82
2024/02/18 02:38:12;;;;;;;1.00;1.00;;;;;;;9.69;61.08;101321.72;4492870;31;33883;-82
2024/02/18 02:40:41;;;;;;;5.28;2.87;;;;;;;9.25;62.39;101332.91;4477052;31;32147;-82
2024/02/18 02:43:10;;;;;;;2.00;1.83;;;;;;;9.42;62.46;101332.69;4478912;31;33374;-82
2024/02/18 02:45:39;;;;;;;1.12;1.12;;;;;;;9.37;62.75;101348.56;4478049;31;32188;-82
2024/02/18 02:48:06;;;;;;;2.92;2.10;;;;;;;9.42;63.17;101351.16;4490428;31;33025;-82
2024/02/18 02:50:34;;;;;;;2.08;1.77;;;;;;;9.46;62.41;101353.72;4489456;31;33377;-82
2024/02/18 02:53:05;;;;;;;0.93;0.93;;;;;;;9.63;61.70;101352.59;4491181;31;34491;-82
2024/02/18 02:55:33;;;;;;;5.50;2.03;;;;;;;9.77;61.46;101357.66;4475830;31;33272;-82
2024/02/18 02:58:01;;;;;;;1.67;1.20;;;;;;;9.93;60.52;101357.41;4489669;31;33956;-83
2024/02/18 03:00:31;;;;;;;1.77;1.67;;;;;;;9.90;60.75;101359.22;4476708;31;32590;-83
2024/02/18 03:02:58;;;;;;;0.98;0.98;;;;;;;9.80;60.89;101369.03;4479312;31;33382;-83
2024/02/18 03:05:26;;;;;;;1.67;1.55;;;;;;;9.83;60.92;101366.38;4478902;31;33953;-83
2024/02/18 03:07:54;;;;;;;1.48;1.33;;;;;;;9.61;61.69;101368.44;4477988;31;32166;-82
2024/02/18 03:10:21;;;;;;;1.48;1.42;;;;;;;9.68;60.96;101378.00;4477895;31;32964;-83
2024/02/18 03:12:49;;;;;;;2.33;2.22;;;;;;;9.80;60.99;101382.22;4489552;31;32656;-83
2024/02/18 03:15:17;;;;;;;1.62;1.52;;;;;;;9.87;60.63;101378.59;4477966;31;34256;-83
2024/02/18 03:17:44;;;;;;;1.00;0.95;;;;;;;9.95;60.22;101381.12;4490993;31;33752;-83
2024/02/18 03:20:12;;;;;;;1.83;1.73;;;;;;;9.81;60.21;101383.97;4477046;31;34060;-82
2024/02/18 03:22:40;;;;;;;1.05;1.05;;;;;;;9.73;60.94;101381.47;4478045;31;33476;-82
2024/02/18 03:25:08;;;;;;;2.60;1.85;;;;;;;9.70;60.66;101381.50;4477613;31;32270;-82
2024/02/18 03:27:36;;;;;;;1.17;1.17;;;;;;;9.78;60.84;101397.22;4492658;31;34586;-82
2024/02/18 03:30:04;;;;;;;2.22;1.42;;;;;;;9.41;61.69;101379.28;4492008;31;33427;-82
2024/02/18 03:32:35;;;;;;;1.90;1.33;;;;;;;9.61;61.14;101392.19;4490841;31;33865;-82
2024/02/18 03:35:06;;;;;;;1.25;1.15;;;;;;;9.69;60.89;101389.44;4489704;31;34051;-82
2024/02/18 03:37:34;;;;;;;4.32;2.40;;;;;;;9.58;60.66;101392.22;4491587;31;33459;-82
2024/02/18 03:40:04;;;;;;;2.10;1.92;;;;;;;9.43;60.65;101385.38;4491670;31;33051;-83
2024/02/18 03:42:32;;;;;;;4.30;2.45;;;;;;;9.44;61.32;101387.13;4476260;31;33324;-84
2024/02/18 03:45:00;;;;;;;2.08;1.92;;;;;;;9.57;60.36;101379.94;4465892;31;32379;-84
2024/02/18 03:47:28;;;;;;;0.60;0.60;;;;;;;9.30;61.36;101391.72;4491624;31;33866;-84
2024/02/18 03:49:55;;;;;;;2.30;2.10;;;;;;;9.32;60.48;101389.94;4478108;31;33389;-84
2024/02/18 03:52:24;;;;;;;1.75;1.65;;;;;;;9.25;59.98;101396.19;4471258;31;33191;-84
2024/02/18 03:54:52;;;;;;;2.30;2.15;;;;;;;9.12;60.94;101398.12;4476475;31;32898;-83
2024/02/18 03:57:19;;;;;;;1.90;1.60;;;;;;;9.12;60.87;101398.12;4475845;31;33015;-84
2024/02/18 03:59:47;;;;;;;2.03;1.30;;;;;;;9.22;60.63;101405.00;4475993;31;34539;-83
2024/02/18 04:02:15;;;;;;;0.95;0.95;;;;;;;9.10;60.59;101404.28;4477361;31;32835;-83
2024/02/18 04:04:43;;;;;;;10.52;0.50;;;;;;;9.05;60.60;101406.97;4474349;31;34915;-83
2024/02/18 04:07:11;;;;;;;5.12;3.20;;;;;;;9.00;61.09;101400.00;4477128;31;33568;-83
2024/02/18 04:09:38;;;;;;;1.17;1.17;;;;;;;8.70;61.71;101410.00;4488300;31;34682;-83
2024/02/18 04:12:07;;;;;;;1.58;1.33;;;;;;;8.87;60.65;101408.03;4489093;31;33740;-83
2024/02/18 04:14:35;;;;;;;4.57;1.98;;;;;;;8.66;62.24;101409.16;4466419;31;32682;-83
2024/02/18 04:17:03;;;;;;;0.52;0.52;;;;;;;8.90;61.26;101401.88;4477840;31;33923;-83
2024/02/18 04:19:31;;;;;;;1.35;1.35;;;;;;;8.74;61.41;101414.34;4475487;31;33659;-83
2024/02/18 04:21:59;;;;;;;2.28;1.37;;;;;;;8.79;61.32;101417.81;4487765;31;34271;-83
2024/02/18 04:24:26;;;;;;;1.00;1.00;;;;;;;8.67;61.36;101416.16;4477028;31;33909;-83
2024/02/18 04:26:55;;;;;;;2.20;2.08;;;;;;;8.60;61.71;101413.63;4491106;31;33105;-84
2024/02/18 04:29:22;;;;;;;3.72;0.82;;;;;;;8.26;62.11;101406.00;4475804;31;33034;-83
2024/02/18 04:31:49;;;;;;;1.27;1.17;;;;;;;8.35;62.60;101408.53;4463583;31;32523;-84
2024/02/18 04:34:18;;;;;;;3.78;2.00;;;;;;;8.40;62.29;101409.41;4476805;31;33851;-84
2024/02/18 04:36:46;;;;;;;2.37;2.22;;;;;;;8.38;61.97;101405.91;4492445;31;34511;-84
2024/02/18 04:39:14;;;;;;;1.83;1.65;;;;;;;8.22;62.73;101401.66;4476894;31;31699;-83
2024/02/18 04:41:43;;;;;;;5.20;1.62;;;;;;;8.32;63.40;101402.44;4464718;31;33463;-83
2024/02/18 04:44:10;;;;;;;5.20;1.55;;;;;;;7.95;64.56;101403.59;4487346;31;34743;-84
2024/02/18 04:46:38;;;;;;;4.07;1.02;;;;;;;8.08;64.52;101407.03;4475618;31;33286;-83
2024/02/18 04:49:06;;;;;;;0.57;0.57;;;;;;;8.14;63.62;101409.59;4491627;31;33385;-83
2024/02/18 04:51:33;;;;;;;5.03;3.62;;;;;;;8.01;63.15;101412.31;4488627;31;33898;-83
2024/02/18 04:54:01;;;;;;;1.58;1.40;;;;;;;7.98;63.65;101409.75;4489143;31;34831;-84
2024/02/18 04:56:29;;;;;;;1.58;1.48;;;;;;;8.12;63.39;101407.88;4477835;31;32674;-83
2024/02/18 04:59:08;;;;;;;11.77;2.97;;;;;;;8.10;63.74;101412.25;4490658;31;33787;-83
2024/02/18 05:01:36;;;;;;;3.37;2.85;;;;;;;7.99;65.27;101408.84;4489375;31;33924;-83
2024/02/18 05:04:04;;;;;;;2.15;1.15;;;;;;;7.95;66.08;101413.25;4468815;31;34848;-84
2024/02/18 05:06:32;;;;;;;2.83;2.60;;;;;;;8.20;64.60;101399.00;4476371;31;33232;-84
2024/02/18 05:08:59;;;;;;;1.77;1.67;;;;;;;8.14;65.37;101406.09;4474554;31;32967;-84
2024/02/18 05:11:27;;;;;;;1.98;1.27;;;;;;;8.17;65.11;101406.09;4477438;31;34348;-83
2024/02/18 05:13:54;;;;;;;1.60;1.10;;;;;;;8.01;64.59;101410.56;4489212;31;34204;-83
2024/02/18 05:16:22;;;;;;;0.40;0.40;;;;;;;8.29;64.25;101400.69;4494121;31;34419;-83
2024/02/18 05:18:50;;;;;;;1.85;1.75;;;;;;;8.13;64.96;101396.47;4476148;31;33064;-83
2024/02/18 05:21:18;;;;;;;0.80;0.73;;;;;;;8.26;64.29;101400.75;4477703;31;32448;-83
2024/02/18 05:23:46;;;;;;;1.75;1.55;;;;;;;8.16;64.74;101396.41;4494277;31;32779;-83
2024/02/18 05:26:15;;;;;;;6.90;2.10;;;;;;;7.76;67.19;101404.62;4478544;31;32772;-82
2024/02/18 05:28:42;;;;;;;2.33;1.30;;;;;;;8.27;65.12;101396.34;4479022;31;33294;-82
2024/02/18 05:31:25;;;;;;;0.88;0.82;;;;;;;8.28;65.24;101396.31;4477574;31;33029;-82
2024/02/18 05:33:53;;;;;;;18.30;3.22;;;;;;;8.56;63.81;101396.09;4478945;31;32564;-82
2024/02/18 05:36:21;;;;;;;0.93;0.93;;;;;;;8.35;64.29;101403.25;4478111;31;33781;-82
2024/02/18 05:38:49;;;;;;;1.40;0.75;;;;;;;8.45;64.53;101402.34;4463923;31;32090;-82
2024/02/18 05:41:17;;;;;;;5.15;2.55;;;;;;;8.50;63.98;101406.66;4493564;31;33882;-82
2024/02/18 05:43:45;;;;;;;0.93;0.90;;;;;;;8.39;64.41;101412.91;4480498;31;34038;-83
2024/02/18 05:46:13;;;;;;;1.33;1.23;;;;;;;8.36;64.69;101414.69;4492788;31;33788;-82
2024/02/18 05:48:40;;;;;;;1.65;1.50;;;;;;;8.45;63.59;101412.87;4490476;31;34055;-82
2024/02/18 05:51:09;;;;;;;1.70;1.37;;;;;;;8.53;63.23;101401.38;4479127;31;34006;-83
2024/02/18 05:53:36;;;;;;;1.52;1.20;;;;;;;8.41;64.06;101407.66;4465898;31;34253;-83
2024/02/18 05:56:05;;;;;;;0.80;0.80;;;;;;;8.53;63.84;101411.91;4476849;31;32772;-83
2024/02/18 05:58:33;;;;;;;1.33;1.02;;;;;;;8.46;63.88;101413.75;4478285;31;32043;-83
2024/02/18 06:01:01;;;;;;;0.80;0.80;;;;;;;8.28;64.21;101411.25;4476233;31;32987;-83
2024/02/18 06:03:30;;;;;;;2.80;1.90;;;;;;;8.37;64.41;101417.34;4490546;31;33982;-83
2024/02/18 06:05:58;;;;;;;3.28;2.37;;;;;;;8.64;63.14;101416.22;4465847;31;32997;-83
2024/02/18 06:08:27;;;;;;;0.60;0.60;;;;;;;8.50;63.93;101422.47;4476838;31;32336;-83
2024/02/18 06:10:55;;;;;;;0.45;0.45;;;;;;;8.71;62.90;101412.63;4476825;31;32364;-83
2024/02/18 06:13:23;;;;;;;0.45;0.45;;;;;;;8.44;63.85;101426.03;4468078;31;32911;-83
2024/02/18 06:15:53;;;;;;;5.05;1.75;;;;;;;8.39;64.28;101431.34;4491044;31;33414;-83
2024/02/18 06:18:21;;;;;;;0.30;0.30;;;;;;;8.56;63.73;101427.69;4477384;31;32508;-83
2024/02/18 06:20:49;;;;;;;0.70;0.70;;;;;;;8.66;62.98;101429.34;4480071;31;32735;-83
2024/02/18 06:23:16;;;;;;;0.55;0.47;;;;;;;8.59;63.73;101428.56;4490807;31;34642;-83
2024/02/18 06:25:45;;;;;;;2.25;2.12;;;;;;;8.91;62.47;101430.81;4477316;31;33221;-83
2024/02/18 06:28:13;;;;;;;4.53;1.92;;;;;;;9.05;62.13;101429.81;4492462;31;33296;-81
2024/02/18 06:30:41;;;;;;;1.52;1.42;;;;;;;8.52;64.13;101433.87;4492531;31;34729;-82
2024/02/18 06:33:09;;;;;;;2.58;1.35;;;;;;;8.74;62.80;101438.06;4467490;31;33792;-82
2024/02/18 06:35:36;;;;;;;2.92;1.70;;;;;;;8.48;64.40;101437.41;4475910;31;32315;-81
2024/02/18 06:38:04;;;;;;;1.05;1.02;;;;;;;8.60;63.86;101430.28;4489436;31;33654;-81
2024/02/18 06:40:32;;;;;;;1.25;1.15;;;;;;;8.62;63.57;101430.25;4468896;31;34053;-83
2024/02/18 06:43:00;;;;;;;1.80;1.70;;;;;;;8.91;62.66;101425.56;4478106;31;33004;-83
2024/02/18 06:45:28;;;;;;;0.52;0.47;;;;;;;8.98;62.15;101421.13;4489457;31;32204;-83
2024/02/18 06:47:56;;;;;;;3.55;1.08;;;;;;;8.92;62.40;101426.44;4491540;31;33080;-83
2024/02/18 06:50:24;;;;;;;1.10;0.80;;;;;;;9.03;61.91;101418.44;4465954;31;32841;-82
2024/02/18 06:52:52;;;;;;;2.45;2.30;;;;;;;9.06;62.45;101428.91;4489552;31;34737;-82
2024/02/18 06:55:20;;;;;;;0.75;0.75;;;;;;;9.03;62.36;101428.97;4488833;31;33509;-82
2024/02/18 06:57:47;;;;;;;0.68;0.68;;;;;;;9.24;61.45;101433.97;4487016;31;32856;-82
2024/02/18 07:00:16;;;;;;;1.33;1.25;;;;;;;9.49;61.07;101432.78;4474795;31;33812;-83
2024/02/18 07:02:45;;;;;;;4.15;1.85;;;;;;;9.34;61.51;101435.59;4489812;31;32096;-83
2024/02/18 07:05:13;;;;;;;0.60;0.60;;;;;;;9.39;61.74;101428.50;4477418;31;31250;-83
2024/02/18 07:07:40;;;;;;;0.85;0.77;;;;;;;9.50;61.42;101431.03;4489264;31;34002;-83
2024/02/18 07:10:08;;;;;;;1.17;1.17;;;;;;;9.46;61.16;101427.53;4490536;31;34541;-83
2024/02/18 07:12:36;;;;;;;0.82;0.82;;;;;;;9.48;61.36;101424.88;4486831;31;34753;-83
2024/02/18 07:15:04;;;;;;;0.73;0.73;;;;;;;9.63;60.62;101429.06;4488964;31;33075;-83
2024/02/18 07:17:32;;;;;;;2.92;1.10;;;;;;;9.14;62.15;101432.34;4490377;31;32641;-83
2024/02/18 07:20:00;;;;;;;1.50;1.40;;;;;;;9.36;61.70;101432.97;4487446;31;34306;-83
2024/02/18 07:22:28;;;;;;;0.85;0.85;;;;;;;9.46;61.42;101430.19;4476581;31;33540;-83
2024/02/18 07:24:56;;;;;;;2.00;1.90;;;;;;;9.62;61.14;101435.25;4489150;31;33910;-83
2024/02/18 07:27:24;;;;;;;1.92;1.35;;;;;;;9.68;60.93;101436.03;4473958;31;31163;-83
2024/02/18 07:29:52;;;;;;;3.03;2.25;;;;;;;9.92;60.31;101437.47;4485849;31;33497;-83
2024/02/18 07:32:19;;;;;;;2.53;0.88;;;;;;;10.23;59.40;101431.69;4474749;31;33399;-83
2024/02/18 07:34:47;;;;;;;0.52;0.35;;;;;;;10.06;59.76;101436.34;4461142;31;32650;-83
2024/02/18 07:37:15;;;;;;;1.58;1.48;;;;;;;10.30;59.33;101432.47;4463875;31;33567;-83
2024/02/18 07:39:43;;;;;;;3.22;1.67;;;;;;;10.18;58.78;101433.53;4485467;31;33017;-84
2024/02/18 07:42:10;;;;;;;2.40;2.20;;;;;;;10.17;59.15;101429.16;4473961;31;33570;-82
2024/02/18 07:44:38;;;;;;;1.77;1.67;;;;;;;10.55;58.55;101425.03;4476907;31;32033;-82
2024/02/18 07:47:06;;;;;;;1.20;1.15;;;;;;;10.62;58.51;101421.38;4487975;31;32649;-83
2024/02/18 07:49:33;;;;;;;1.40;1.35;;;;;;;10.72;58.15;101423.81;4474538;31;32645;-82
2024/02/18 07:52:02;;;;;;;0.98;0.95;;;;;;;10.80;57.99;101425.47;4472151;31;32451;-82
2024/02/18 07:54:31;;;;;;;3.50;2.08;;;;;;;10.79;57.51;101424.59;4483282;31;33634;-82
2024/02/18 07:56:58;;;;;;;1.95;1.67;;;;;;;10.70;57.29;101438.84;4484196;31;34098;-82
2024/02/18 07:59:26;;;;;;;1.50;1.40;;;;;;;11.08;56.71;101425.81;4474094;31;33514;-82
2024/02/18 08:01:53;;;;;;;1.75;1.60;;;;;;;11.44;55.69;101426.78;4484331;31;33609;-82
2024/02/18 08:04:22;;;;;;;0.73;0.73;;;;;;;11.15;55.72;101436.19;4485439;31;33038;-82
2024/02/18 08:06:50;;;;;;;3.70;2.47;;;;;;;11.15;55.76;101427.41;4459843;31;32247;-82
2024/02/18 08:09:18;;;;;;;4.65;1.20;;;;;;;11.33;55.72;101432.31;4476857;31;32778;-82
2024/02/18 08:11:46;;;;;;;1.45;1.35;;;;;;;11.61;55.67;101434.38;4473560;31;34107;-82
2024/02/18 08:14:14;;;;;;;0.25;0.25;;;;;;;11.52;55.45;101433.66;4480758;31;34462;-82
2024/02/18 08:16:42;;;;;;;1.65;1.55;;;;;;;11.58;54.50;101430.00;4484527;31;32139;-83
2024/02/18 08:19:10;;;;;;;0.85;0.85;;;;;;;11.66;54.28;101427.22;4473397;31;33122;-81
2024/02/18 08:21:37;;;;;;;2.22;1.23;;;;;;;11.48;55.00;101432.00;4474251;31;32986;-81
2024/02/18 08:24:06;;;;;;;1.25;1.15;;;;;;;11.85;54.02;101439.16;4460938;31;33186;-83
2024/02/18 08:26:34;;;;;;;2.12;1.92;;;;;;;12.09;53.70;101442.12;4482861;31;33041;-82
2024/02/18 08:29:01;;;;;;;3.62;1.67;;;;;;;12.03;53.52;101438.72;4485925;31;33809;-81
2024/02/18 08:31:29;;;;;;;1.30;1.20;;;;;;;11.93;53.72;101439.00;4471166;31;34299;-81
2024/02/18 08:33:57;;;;;;;0.98;0.98;;;;;;;11.98;53.76;101437.97;4473187;31;32288;-82
2024/02/18 08:36:25;;;;;;;0.85;0.85;;;;;;;12.40;53.65;101435.19;4473626;31;32472;-81
2024/02/18 08:38:54;;;;;;;1.20;1.20;;;;;;;11.94;54.56;101441.59;4488579;31;34195;-81
2024/02/18 08:41:22;;;;;;;0.82;0.82;;;;;;;12.27;52.79;101452.28;4483088;31;34929;-81
2024/02/18 08:43:52;;;;;;;1.75;1.27;;;;;;;12.54;52.20;101445.44;4472549;31;32760;-81
2024/02/18 08:46:22;;;;;;;0.00;0.00;;;;;;;12.64;51.27;101448.72;4462745;31;32376;-82
2024/02/18 08:48:50;;;;;;;2.17;1.98;;;;;;;12.86;51.19;101446.38;4473103;31;34324;-82
2024/02/18 08:51:18;;;;;;;0.65;0.65;;;;;;;13.00;50.25;101433.59;4474115;31;32444;-82
2024/02/18 08:53:46;;;;;;;1.30;1.25;;;;;;;12.76;51.53;101443.09;4475011;31;34320;-82
2024/02/18 08:56:15;;;;;;;1.27;1.02;;;;;;;12.95;51.10;101428.41;4476574;31;31112;-82
2024/02/18 08:58:44;;;;;;;1.80;0.80;;;;;;;13.15;50.29;101435.84;4464717;31;34203;-82
2024/02/18 09:01:11;;;;;;;0.60;0.60;;;;;;;13.60;49.62;101429.25;4474577;31;35289;-82
2024/02/18 09:03:39;;;;;;;0.80;0.75;;;;;;;13.74;47.62;101429.72;4476495;31;32486;-82
2024/02/18 09:06:08;;;;;;;0.60;0.60;;;;;;;13.12;49.16;101435.91;4476873;31;33174;-82
2024/02/18 09:08:36;;;;;;;0.17;0.17;;;;;;;13.25;48.87;101433.84;4473053;31;32419;-82
2024/02/18 09:11:04;;;;;;;1.00;0.95;;;;;;;13.52;48.04;101442.75;4473056;31;33394;-82
2024/02/18 09:13:32;;;;;;;0.88;0.82;;;;;;;13.63;48.01;101429.19;4487742;31;32220;-82
2024/02/18 09:16:00;;;;;;;1.40;1.30;;;;;;;13.97;47.59;101435.16;4473541;31;31958;-82
2024/02/18 09:18:28;;;;;;;0.70;0.70;;;;;;;14.26;47.34;101434.22;4474280;31;34358;-82
2024/02/18 09:20:56;;;;;;;1.25;1.10;;;;;;;14.02;48.14;101440.34;4481215;31;33810;-82
2024/02/18 09:23:24;;;;;;;1.80;1.70;;;;;;;14.20;46.08;101450.37;4461879;31;33333;-81
2024/02/18 09:25:52;;;;;;;0.52;0.47;;;;;;;14.68;45.71;101440.84;4483867;31;34070;-82
2024/02/18 09:28:20;;;;;;;2.47;1.02;;;;;;;15.14;44.45;101436.53;4473236;31;33085;-82
2024/02/18 09:30:48;;;;;;;2.35;2.17;;;;;;;14.82;45.43;101443.87;4487706;31;33633;-82
2024/02/18 09:33:16;;;;;;;2.70;1.08;;;;;;;14.52;45.74;101438.69;4472883;31;33523;-82
2024/02/18 09:35:43;;;;;;;0.85;0.70;;;;;;;15.00;43.42;101427.28;4488574;31;33300;-82
2024/02/18 09:38:12;;;;;;;1.95;1.45;;;;;;;14.83;44.37;101433.19;4471905;31;33615;-82
2024/02/18 09:40:40;;;;;;;1.08;0.82;;;;;;;15.11;44.01;101430.41;4472232;31;33043;-82
2024/02/18 09:43:09;;;;;;;1.05;0.88;;;;;;;14.96;43.48;101433.63;4490559;31;35487;-82
2024/02/18 09:45:40;;;;;;;0.65;0.65;;;;;;;15.26;42.60;101428.09;4485415;31;33333;-82
2024/02/18 09:48:11;;;;;;;2.70;2.03;;;;;;;15.42;41.66;101423.06;4467975;31;33246;-82
2024/02/18 09:50:40;;;;;;;1.35;1.27;;;;;;;15.21;41.44;101424.75;4472814;31;34832;-82
2024/02/18 09:53:09;;;;;;;0.93;0.93;;;;;;;14.82;41.43;101422.63;4485047;31;33460;-82
2024/02/18 09:55:38;;;;;;;1.77;0.77;;;;;;;15.49;39.98;101420.13;4475246;31;34014;-82
2024/02/18 09:58:06;;;;;;;0.00;0.00;;;;;;;15.76;35.65;101418.22;4473304;31;30328;-83
2024/02/18 10:00:36;;;;;;;0.30;0.30;;;;;;;15.55;34.71;101419.87;4486250;31;33940;-83
2024/02/18 10:03:06;;;;;;;0.45;0.28;;;;;;;15.44;34.06;101414.09;4490658;31;33508;-83
2024/02/18 10:05:47;;;;;;;0.65;0.32;;;;;;;15.14;33.75;101415.25;4472658;31;33098;-81
2024/02/18 10:08:15;;;;;;;0.60;0.30;;;;;;;14.92;35.37;101418.69;4478324;31;33177;-81
2024/02/18 10:10:44;;;;;;;0.10;0.00;;;;;;;14.94;35.56;101415.97;4488188;31;32006;-81
2024/02/18 10:13:11;;;;;;;0.00;0.00;;;;;;;15.13;35.96;101417.03;4476317;31;33420;-82
2024/02/18 10:15:39;;;;;;;0.13;0.13;;;;;;;15.34;34.61;101402.09;4449824;31;33827;-83
2024/02/18 10:18:09;;;;;;;0.10;0.10;;;;;;;15.58;34.56;101413.59;4490297;31;34314;-82
2024/02/18 10:20:37;;;;;;;0.30;0.17;;;;;;;15.84;33.92;101404.59;4478302;31;31299;-82
2024/02/18 10:23:05;;;;;;;0.10;0.10;;;;;;;15.82;34.01;101406.47;4475537;31;32848;-82
2024/02/18 10:25:35;;;;;;;0.65;0.65;;;;;;;16.09;33.03;101399.13;4489054;31;31359;-82
2024/02/18 10:28:04;;;;;;;0.70;0.52;;;;;;;15.82;33.37;101399.34;4489976;31;34146;-82
2024/02/18 10:30:33;;;;;;;0.00;0.00;;;;;;;16.05;33.14;101393.06;4475621;31;32599;-83
2024/02/18 10:33:00;;;;;;;0.00;0.00;;;;;;;16.07;33.60;101398.34;4475938;31;31838;-82
2024/02/18 10:35:28;;;;;;;0.65;0.65;;;;;;;16.17;32.31;101390.81;4490097;31;33173;-82
2024/02/18 10:37:57;;;;;;;0.98;0.57;;;;;;;16.11;33.62;101390.16;4473589;31;33376;-82
2024/02/18 10:40:31;;;;;;;0.10;0.10;;;;;;;16.28;32.79;101377.91;4490554;31;34677;-82
2024/02/18 10:43:00;;;;;;;0.65;0.45;;;;;;;16.28;34.18;101377.91;4477338;31;32964;-82
2024/02/18 10:45:30;;;;;;;0.70;0.57;;;;;;;16.85;34.10;101379.00;4476783;31;31472;-82
2024/02/18 10:48:00;;;;;;;0.52;0.52;;;;;;;16.48;36.31;101385.94;4464779;31;32648;-82
2024/02/18 10:50:34;;;;;;;0.08;0.08;;;;;;;15.81;38.85;101383.41;4484054;31;33597;-82
2024/02/18 10:53:14;;;;;;;1.12;1.02;;;;;;;13.89;39.09;101370.81;4473375;31;32692;-82
2024/02/18 10:55:46;;;;;;;0.00;0.00;;;;;;;15.07;40.56;101386.22;4489068;31;33156;-82
2024/02/18 10:58:19;;;;;;;0.22;0.22;;;;;;;14.94;35.08;101384.94;4475861;31;33323;-82
2024/02/18 11:00:51;;;;;;;2.10;0.45;;;;;;;14.92;36.03;101386.78;4487604;31;34752;-82
2024/02/18 11:03:29;;;;;;;0.35;0.35;;;;;;;14.98;36.18;101373.25;4487765;31;36038;-82
2024/02/18 11:05:59;;;;;;;0.32;0.32;;;;;;;15.13;36.92;101374.47;4476599;31;33649;-82
2024/02/18 11:08:29;;;;;;;0.20;0.20;;;;;;;15.73;35.39;101374.88;4473475;31;33787;-82
2024/02/18 11:10:58;;;;;;;0.15;0.10;;;;;;;15.75;35.26;101373.00;4474638;31;35152;-82
2024/02/18 11:13:28;;;;;;;0.73;0.40;;;;;;;15.33;35.76;101371.03;4484932;31;33845;-82
2024/02/18 11:15:56;;;;;;;0.30;0.30;;;;;;;15.08;37.50;101366.66;4465772;31;32305;-82
2024/02/18 11:18:24;;;;;;;0.20;0.20;;;;;;;15.46;36.60;101359.00;4488302;31;34596;-83
2024/02/18 11:20:54;;;;;;;0.68;0.50;;;;;;;15.55;36.03;101355.13;4485361;31;34674;-82
2024/02/18 11:23:22;;;;;;;0.10;0.10;;;;;;;15.63;36.64;101355.69;4478402;31;33484;-83
2024/02/18 11:25:50;;;;;;;0.50;0.50;;;;;;;15.95;36.30;101342.88;4488072;31;33621;-82
2024/02/18 11:28:18;;;;;;;0.47;0.47;;;;;;;15.82;37.14;101343.41;4490821;31;32680;-82
2024/02/18 11:30:46;;;;;;;0.17;0.15;;;;;;;16.33;36.06;101336.81;4488065;31;33942;-82
2024/02/18 11:33:18;;;;;;;0.43;0.37;;;;;;;16.65;35.57;101327.38;4474333;31;32402;-82
2024/02/18 11:35:46;;;;;;;0.40;0.40;;;;;;;16.31;36.32;101335.13;4466393;31;32317;-82